sensor_id;sensor_type;location;lat;lon;timestamp;P1;durP1;ratioP1;P2;durP2;ratioP2
20458;SDS011;10388;52.314;7.938;2023-07-22T03:19:01;12.70;;;7.77;;
20458;SDS011;10388;52.314;7.938;2023-07-22T03:21:31;12.47;;;7.93;;
20458;SDS011;10388;52.314;7.938;2023-07-22T03:24:02;9.90;;;7.20;;
20458;SDS011;10388;52.314;7.938;2023-07-22T03:26:33;11.90;;;7.17;;
20458;SDS011;10388;52.314;7.938;2023-07-22T03:29:04;11.73;;;7.10;;
20458;SDS011;10388;52.314;7.938;2023-07-22T03:31:35;12.47;;;7.23;;
20458;SDS011;10388;52.314;7.938;2023-07-22T03:34:05;12.50;;;7.33;;
20458;SDS011;10388;52.314;7.938;2023-07-22T03:36:36;10.83;;;6.80;;
20458;SDS011;10388;52.314;7.938;2023-07-22T03:39:07;10.33;;;7.17;;
20458;SDS011;10388;52.314;7.938;2023-07-22T03:41:38;10.00;;;6.77;;
20458;SDS011;10388;52.314;7.938;2023-07-22T03:44:09;11.23;;;6.97;;
20458;SDS011;10388;52.314;7.938;2023-07-22T03:46:39;8.70;;;6.70;;
20458;SDS011;10388;52.314;7.938;2023-07-22T03:49:10;10.27;;;7.07;;
20458;SDS011;10388;52.314;7.938;2023-07-22T03:51:41;14.60;;;8.17;;
20458;SDS011;10388;52.314;7.938;2023-07-22T03:54:11;13.60;;;7.83;;
20458;SDS011;10388;52.314;7.938;2023-07-22T03:56:42;10.40;;;7.23;;
20458;SDS011;10388;52.314;7.938;2023-07-22T03:59:12;11.03;;;7.27;;
20458;SDS011;10388;52.314;7.938;2023-07-22T04:01:43;13.33;;;7.20;;
20458;SDS011;10388;52.314;7.938;2023-07-22T04:04:14;11.23;;;7.43;;
20458;SDS011;10388;52.314;7.938;2023-07-22T04:06:44;11.57;;;8.27;;
20458;SDS011;10388;52.314;7.938;2023-07-22T04:09:15;11.17;;;7.43;;
20458;SDS011;10388;52.314;7.938;2023-07-22T04:11:46;13.60;;;8.37;;
20458;SDS011;10388;52.314;7.938;2023-07-22T04:14:16;11.63;;;7.73;;
20458;SDS011;10388;52.314;7.938;2023-07-22T04:16:47;10.97;;;7.27;;
20458;SDS011;10388;52.314;7.938;2023-07-22T04:19:18;10.80;;;7.70;;
20458;SDS011;10388;52.314;7.938;2023-07-22T04:21:49;11.90;;;7.60;;
20458;SDS011;10388;52.314;7.938;2023-07-22T04:24:20;10.67;;;7.40;;
20458;SDS011;10388;52.314;7.938;2023-07-22T04:26:50;10.27;;;7.17;;
20458;SDS011;10388;52.314;7.938;2023-07-22T04:29:21;11.53;;;7.80;;
20458;SDS011;10388;52.314;7.938;2023-07-22T04:31:58;12.87;;;7.87;;
20458;SDS011;10388;52.314;7.938;2023-07-22T04:34:31;9.97;;;7.03;;
20458;SDS011;10388;52.314;7.938;2023-07-22T04:37:05;10.00;;;6.97;;
20458;SDS011;10388;52.314;7.938;2023-07-22T04:39:36;14.17;;;7.87;;
20458;SDS011;10388;52.314;7.938;2023-07-22T04:42:07;10.17;;;7.20;;
20458;SDS011;10388;52.314;7.938;2023-07-22T04:44:38;13.53;;;7.97;;
20458;SDS011;10388;52.314;7.938;2023-07-22T04:47:11;12.87;;;7.77;;
20458;SDS011;10388;52.314;7.938;2023-07-22T04:49:42;12.10;;;7.90;;
20458;SDS011;10388;52.314;7.938;2023-07-22T04:52:12;12.90;;;7.43;;
20458;SDS011;10388;52.314;7.938;2023-07-22T04:54:43;15.77;;;8.00;;
20458;SDS011;10388;52.314;7.938;2023-07-22T04:57:17;10.93;;;7.20;;
20458;SDS011;10388;52.314;7.938;2023-07-22T04:59:48;11.13;;;7.07;;
20458;SDS011;10388;52.314;7.938;2023-07-22T05:02:18;9.77;;;6.90;;
20458;SDS011;10388;52.314;7.938;2023-07-22T05:04:49;12.33;;;7.30;;
20458;SDS011;10388;52.314;7.938;2023-07-22T05:07:20;9.60;;;6.67;;
20458;SDS011;10388;52.314;7.938;2023-07-22T05:09:51;8.30;;;6.40;;
20458;SDS011;10388;52.314;7.938;2023-07-22T05:12:22;12.37;;;6.83;;
20458;SDS011;10388;52.314;7.938;2023-07-22T05:14:53;11.37;;;6.73;;
20458;SDS011;10388;52.314;7.938;2023-07-22T05:17:23;11.30;;;6.87;;
20458;SDS011;10388;52.314;7.938;2023-07-22T05:22:31;10.93;;;7.47;;
20458;SDS011;10388;52.314;7.938;2023-07-22T05:25:03;9.90;;;6.80;;
20458;SDS011;10388;52.314;7.938;2023-07-22T05:27:35;9.80;;;7.10;;
20458;SDS011;10388;52.314;7.938;2023-07-22T05:30:09;9.23;;;7.40;;
20458;SDS011;10388;52.314;7.938;2023-07-22T05:32:40;10.47;;;6.73;;
20458;SDS011;10388;52.314;7.938;2023-07-22T05:35:11;8.93;;;7.03;;
20458;SDS011;10388;52.314;7.938;2023-07-22T05:37:42;9.33;;;7.30;;
20458;SDS011;10388;52.314;7.938;2023-07-22T05:40:12;10.50;;;7.40;;
20458;SDS011;10388;52.314;7.938;2023-07-22T05:42:43;10.50;;;7.10;;
20458;SDS011;10388;52.314;7.938;2023-07-22T05:45:14;11.77;;;7.73;;
20458;SDS011;10388;52.314;7.938;2023-07-22T05:47:46;9.87;;;7.13;;
20458;SDS011;10388;52.314;7.938;2023-07-22T05:50:16;9.23;;;7.33;;
20458;SDS011;10388;52.314;7.938;2023-07-22T05:52:47;9.97;;;7.17;;
20458;SDS011;10388;52.314;7.938;2023-07-22T05:55:18;10.30;;;7.30;;
20458;SDS011;10388;52.314;7.938;2023-07-22T05:57:48;12.23;;;8.73;;
20458;SDS011;10388;52.314;7.938;2023-07-22T06:00:19;10.37;;;7.70;;
20458;SDS011;10388;52.314;7.938;2023-07-22T06:02:49;14.50;;;8.87;;
20458;SDS011;10388;52.314;7.938;2023-07-22T06:05:20;13.00;;;7.97;;
20458;SDS011;10388;52.314;7.938;2023-07-22T06:07:50;14.47;;;8.70;;
20458;SDS011;10388;52.314;7.938;2023-07-22T06:10:21;11.60;;;8.13;;
20458;SDS011;10388;52.314;7.938;2023-07-22T06:12:52;13.43;;;8.03;;
20458;SDS011;10388;52.314;7.938;2023-07-22T06:15:22;12.13;;;9.13;;
20458;SDS011;10388;52.314;7.938;2023-07-22T06:17:53;20.53;;;8.07;;
20458;SDS011;10388;52.314;7.938;2023-07-22T06:20:23;11.17;;;8.03;;
20458;SDS011;10388;52.314;7.938;2023-07-22T06:22:54;16.97;;;8.30;;
20458;SDS011;10388;52.314;7.938;2023-07-22T06:25:24;14.03;;;7.97;;
20458;SDS011;10388;52.314;7.938;2023-07-22T06:27:55;12.77;;;8.37;;
20458;SDS011;10388;52.314;7.938;2023-07-22T06:30:25;10.90;;;8.27;;
20458;SDS011;10388;52.314;7.938;2023-07-22T06:32:56;9.33;;;7.40;;
20458;SDS011;10388;52.314;7.938;2023-07-22T06:35:26;12.90;;;8.50;;
20458;SDS011;10388;52.314;7.938;2023-07-22T06:37:57;9.70;;;7.07;;
20458;SDS011;10388;52.314;7.938;2023-07-22T06:40:28;10.60;;;8.53;;
20458;SDS011;10388;52.314;7.938;2023-07-22T06:42:58;10.80;;;7.57;;
20458;SDS011;10388;52.314;7.938;2023-07-22T06:45:29;11.70;;;7.63;;
20458;SDS011;10388;52.314;7.938;2023-07-22T06:47:59;16.83;;;8.73;;
20458;SDS011;10388;52.314;7.938;2023-07-22T06:50:30;14.07;;;8.43;;
20458;SDS011;10388;52.314;7.938;2023-07-22T06:53:00;10.33;;;7.63;;
20458;SDS011;10388;52.314;7.938;2023-07-22T06:55:31;11.00;;;8.30;;
20458;SDS011;10388;52.314;7.938;2023-07-22T06:58:01;11.80;;;8.40;;
20458;SDS011;10388;52.314;7.938;2023-07-22T07:00:32;11.27;;;7.50;;
20458;SDS011;10388;52.314;7.938;2023-07-22T07:03:02;12.53;;;8.90;;
20458;SDS011;10388;52.314;7.938;2023-07-22T07:05:33;14.10;;;9.00;;
20458;SDS011;10388;52.314;7.938;2023-07-22T07:08:04;11.50;;;8.30;;
20458;SDS011;10388;52.314;7.938;2023-07-22T07:10:36;10.97;;;8.50;;
20458;SDS011;10388;52.314;7.938;2023-07-22T07:13:08;10.80;;;8.67;;
20458;SDS011;10388;52.314;7.938;2023-07-22T07:15:39;10.80;;;8.50;;
20458;SDS011;10388;52.314;7.938;2023-07-22T07:18:09;15.20;;;9.50;;
20458;SDS011;10388;52.314;7.938;2023-07-22T07:20:40;11.67;;;9.07;;
20458;SDS011;10388;52.314;7.938;2023-07-22T07:23:10;11.00;;;8.63;;
20458;SDS011;10388;52.314;7.938;2023-07-22T07:25:43;10.67;;;9.07;;
20458;SDS011;10388;52.314;7.938;2023-07-22T07:28:13;12.20;;;8.60;;
20458;SDS011;10388;52.314;7.938;2023-07-22T07:30:44;12.07;;;9.57;;
20458;SDS011;10388;52.314;7.938;2023-07-22T07:33:15;10.63;;;8.83;;
20458;SDS011;10388;52.314;7.938;2023-07-22T07:35:46;12.07;;;9.47;;
20458;SDS011;10388;52.314;7.938;2023-07-22T07:38:17;12.67;;;9.17;;
20458;SDS011;10388;52.314;7.938;2023-07-22T07:40:55;18.70;;;9.93;;
20458;SDS011;10388;52.314;7.938;2023-07-22T07:43:27;13.87;;;9.13;;
20458;SDS011;10388;52.314;7.938;2023-07-22T07:48:44;11.73;;;9.47;;
20458;SDS011;10388;52.314;7.938;2023-07-22T07:51:16;11.43;;;8.37;;
20458;SDS011;10388;52.314;7.938;2023-07-22T07:53:49;11.47;;;9.10;;
20458;SDS011;10388;52.314;7.938;2023-07-22T07:56:21;10.20;;;7.83;;
20458;SDS011;10388;52.314;7.938;2023-07-22T07:58:53;11.70;;;8.90;;
20458;SDS011;10388;52.314;7.938;2023-07-22T08:01:23;12.80;;;8.33;;
20458;SDS011;10388;52.314;7.938;2023-07-22T08:03:54;22.67;;;11.13;;
20458;SDS011;10388;52.314;7.938;2023-07-22T08:06:24;15.20;;;9.60;;
20458;SDS011;10388;52.314;7.938;2023-07-22T08:08:55;22.83;;;10.00;;
20458;SDS011;10388;52.314;7.938;2023-07-22T08:11:25;11.57;;;9.37;;
20458;SDS011;10388;52.314;7.938;2023-07-22T08:13:56;12.77;;;9.30;;
20458;SDS011;10388;52.314;7.938;2023-07-22T08:16:27;11.13;;;8.67;;
20458;SDS011;10388;52.314;7.938;2023-07-22T08:18:58;12.63;;;8.87;;
20458;SDS011;10388;52.314;7.938;2023-07-22T08:21:28;10.57;;;8.83;;
20458;SDS011;10388;52.314;7.938;2023-07-22T08:23:59;11.07;;;8.77;;
20458;SDS011;10388;52.314;7.938;2023-07-22T08:26:29;11.93;;;8.60;;
20458;SDS011;10388;52.314;7.938;2023-07-22T08:29:00;11.27;;;8.97;;
20458;SDS011;10388;52.314;7.938;2023-07-22T08:31:30;11.87;;;8.33;;
20458;SDS011;10388;52.314;7.938;2023-07-22T08:34:01;11.40;;;7.83;;
20458;SDS011;10388;52.314;7.938;2023-07-22T08:36:31;13.27;;;8.37;;
20458;SDS011;10388;52.314;7.938;2023-07-22T08:39:02;8.67;;;7.27;;
20458;SDS011;10388;52.314;7.938;2023-07-22T08:41:33;11.10;;;7.37;;
20458;SDS011;10388;52.314;7.938;2023-07-22T08:44:04;9.07;;;7.00;;
20458;SDS011;10388;52.314;7.938;2023-07-22T08:46:38;10.03;;;7.00;;
20458;SDS011;10388;52.314;7.938;2023-07-22T08:49:10;9.23;;;7.10;;
20458;SDS011;10388;52.314;7.938;2023-07-22T08:51:41;8.47;;;6.60;;
20458;SDS011;10388;52.314;7.938;2023-07-22T08:54:11;10.20;;;6.83;;
20458;SDS011;10388;52.314;7.938;2023-07-22T08:56:43;8.27;;;5.97;;
20458;SDS011;10388;52.314;7.938;2023-07-22T08:59:14;7.40;;;6.13;;
20458;SDS011;10388;52.314;7.938;2023-07-22T09:01:46;10.97;;;5.80;;
20458;SDS011;10388;52.314;7.938;2023-07-22T09:04:18;7.53;;;5.60;;
20458;SDS011;10388;52.314;7.938;2023-07-22T09:06:49;6.73;;;5.23;;
20458;SDS011;10388;52.314;7.938;2023-07-22T09:09:21;8.07;;;5.67;;
20458;SDS011;10388;52.314;7.938;2023-07-22T09:11:52;5.83;;;5.23;;
20458;SDS011;10388;52.314;7.938;2023-07-22T09:14:23;6.60;;;5.40;;
20458;SDS011;10388;52.314;7.938;2023-07-22T09:16:54;8.47;;;5.37;;
20458;SDS011;10388;52.314;7.938;2023-07-22T09:19:25;5.87;;;5.03;;
20458;SDS011;10388;52.314;7.938;2023-07-22T09:21:56;9.10;;;5.20;;
20458;SDS011;10388;52.314;7.938;2023-07-22T09:24:28;6.43;;;4.63;;
20458;SDS011;10388;52.314;7.938;2023-07-22T09:26:59;8.80;;;5.40;;
20458;SDS011;10388;52.314;7.938;2023-07-22T09:32:05;5.67;;;4.50;;
20458;SDS011;10388;52.314;7.938;2023-07-22T09:34:36;6.50;;;4.23;;
20458;SDS011;10388;52.314;7.938;2023-07-22T09:37:06;5.67;;;5.03;;
20458;SDS011;10388;52.314;7.938;2023-07-22T09:39:37;5.20;;;4.70;;
20458;SDS011;10388;52.314;7.938;2023-07-22T09:42:07;8.93;;;4.70;;
20458;SDS011;10388;52.314;7.938;2023-07-22T09:44:39;5.97;;;4.90;;
20458;SDS011;10388;52.314;7.938;2023-07-22T09:47:13;5.00;;;4.50;;
20458;SDS011;10388;52.314;7.938;2023-07-22T09:49:44;5.50;;;4.17;;
20458;SDS011;10388;52.314;7.938;2023-07-22T09:52:15;5.53;;;4.33;;
20458;SDS011;10388;52.314;7.938;2023-07-22T09:54:48;5.87;;;4.50;;
20458;SDS011;10388;52.314;7.938;2023-07-22T09:57:20;4.77;;;4.13;;
20458;SDS011;10388;52.314;7.938;2023-07-22T09:59:51;5.20;;;3.87;;
20458;SDS011;10388;52.314;7.938;2023-07-22T10:02:23;3.67;;;3.33;;
20458;SDS011;10388;52.314;7.938;2023-07-22T10:04:54;5.40;;;3.40;;
20458;SDS011;10388;52.314;7.938;2023-07-22T10:07:29;5.53;;;3.30;;
20458;SDS011;10388;52.314;7.938;2023-07-22T10:10:03;4.67;;;3.37;;
20458;SDS011;10388;52.314;7.938;2023-07-22T10:12:35;5.27;;;3.40;;
20458;SDS011;10388;52.314;7.938;2023-07-22T10:15:06;3.90;;;3.13;;
20458;SDS011;10388;52.314;7.938;2023-07-22T10:17:41;4.37;;;3.30;;
20458;SDS011;10388;52.314;7.938;2023-07-22T10:20:13;6.00;;;4.23;;
20458;SDS011;10388;52.314;7.938;2023-07-22T10:22:50;5.50;;;4.27;;
20458;SDS011;10388;52.314;7.938;2023-07-22T10:25:21;7.73;;;4.77;;
20458;SDS011;10388;52.314;7.938;2023-07-22T10:27:52;6.83;;;5.20;;
20458;SDS011;10388;52.314;7.938;2023-07-22T10:30:24;6.93;;;5.13;;
20458;SDS011;10388;52.314;7.938;2023-07-22T10:32:54;6.43;;;5.53;;
20458;SDS011;10388;52.314;7.938;2023-07-22T10:38:06;7.00;;;5.33;;
20458;SDS011;10388;52.314;7.938;2023-07-22T10:40:52;10.07;;;5.67;;
20458;SDS011;10388;52.314;7.938;2023-07-22T10:43:24;7.27;;;5.50;;
20458;SDS011;10388;52.314;7.938;2023-07-22T10:45:56;7.27;;;5.23;;
20458;SDS011;10388;52.314;7.938;2023-07-22T10:48:35;6.27;;;4.27;;
20458;SDS011;10388;52.314;7.938;2023-07-22T10:51:09;5.03;;;4.23;;
20458;SDS011;10388;52.314;7.938;2023-07-22T10:53:41;6.50;;;4.83;;
20458;SDS011;10388;52.314;7.938;2023-07-22T10:56:15;8.13;;;4.63;;
20458;SDS011;10388;52.314;7.938;2023-07-22T11:07:03;7.33;;;5.10;;
20458;SDS011;10388;52.314;7.938;2023-07-22T11:09:35;8.90;;;5.47;;
20458;SDS011;10388;52.314;7.938;2023-07-22T11:12:13;6.23;;;5.20;;
20458;SDS011;10388;52.314;7.938;2023-07-22T11:14:49;6.07;;;5.23;;
20458;SDS011;10388;52.314;7.938;2023-07-22T11:17:27;7.23;;;5.13;;
20458;SDS011;10388;52.314;7.938;2023-07-22T11:20:00;6.07;;;5.13;;
20458;SDS011;10388;52.314;7.938;2023-07-22T11:22:31;6.47;;;5.47;;
20458;SDS011;10388;52.314;7.938;2023-07-22T11:25:02;7.43;;;5.80;;
20458;SDS011;10388;52.314;7.938;2023-07-22T11:27:33;6.57;;;5.40;;
20458;SDS011;10388;52.314;7.938;2023-07-22T11:30:03;7.87;;;5.70;;
20458;SDS011;10388;52.314;7.938;2023-07-22T11:32:34;6.57;;;5.30;;
20458;SDS011;10388;52.314;7.938;2023-07-22T11:35:05;7.10;;;5.30;;
20458;SDS011;10388;52.314;7.938;2023-07-22T11:37:36;7.77;;;5.73;;
20458;SDS011;10388;52.314;7.938;2023-07-22T11:40:06;8.27;;;5.53;;
20458;SDS011;10388;52.314;7.938;2023-07-22T11:42:41;6.37;;;5.77;;
20458;SDS011;10388;52.314;7.938;2023-07-22T11:45:11;5.97;;;5.37;;
20458;SDS011;10388;52.314;7.938;2023-07-22T11:47:42;7.93;;;5.73;;
20458;SDS011;10388;52.314;7.938;2023-07-22T11:50:14;8.57;;;5.80;;
20458;SDS011;10388;52.314;7.938;2023-07-22T11:52:51;6.10;;;5.30;;
20458;SDS011;10388;52.314;7.938;2023-07-22T11:55:24;6.00;;;5.40;;
20458;SDS011;10388;52.314;7.938;2023-07-22T11:57:55;7.93;;;5.50;;
20458;SDS011;10388;52.314;7.938;2023-07-22T12:00:26;5.43;;;4.83;;
20458;SDS011;10388;52.314;7.938;2023-07-22T12:02:56;6.80;;;4.30;;
20458;SDS011;10388;52.314;7.938;2023-07-22T12:05:28;5.33;;;4.63;;
20458;SDS011;10388;52.314;7.938;2023-07-22T12:07:59;4.70;;;4.20;;
20458;SDS011;10388;52.314;7.938;2023-07-22T12:10:29;5.10;;;3.97;;
20458;SDS011;10388;52.314;7.938;2023-07-22T12:13:00;5.37;;;4.03;;
20458;SDS011;10388;52.314;7.938;2023-07-22T12:15:31;5.53;;;3.60;;
20458;SDS011;10388;52.314;7.938;2023-07-22T12:18:02;4.70;;;3.57;;
20458;SDS011;10388;52.314;7.938;2023-07-22T12:20:34;6.00;;;4.50;;
20458;SDS011;10388;52.314;7.938;2023-07-22T12:23:08;4.60;;;3.73;;
20458;SDS011;10388;52.314;7.938;2023-07-22T12:25:39;4.77;;;3.80;;
20458;SDS011;10388;52.314;7.938;2023-07-22T12:28:09;4.90;;;3.80;;
20458;SDS011;10388;52.314;7.938;2023-07-22T12:30:40;4.83;;;3.90;;
20458;SDS011;10388;52.314;7.938;2023-07-22T12:33:11;5.43;;;3.93;;
20458;SDS011;10388;52.314;7.938;2023-07-22T12:35:42;3.70;;;3.27;;
20458;SDS011;10388;52.314;7.938;2023-07-22T12:38:12;4.57;;;3.27;;
20458;SDS011;10388;52.314;7.938;2023-07-22T12:40:43;5.10;;;3.53;;
20458;SDS011;10388;52.314;7.938;2023-07-22T12:43:13;4.17;;;3.30;;
20458;SDS011;10388;52.314;7.938;2023-07-22T12:45:44;4.83;;;3.30;;
20458;SDS011;10388;52.314;7.938;2023-07-22T12:48:14;5.23;;;3.20;;
20458;SDS011;10388;52.314;7.938;2023-07-22T12:50:45;3.93;;;3.40;;
20458;SDS011;10388;52.314;7.938;2023-07-22T12:53:18;3.13;;;2.70;;
20458;SDS011;10388;52.314;7.938;2023-07-22T12:55:49;4.10;;;3.37;;
20458;SDS011;10388;52.314;7.938;2023-07-22T12:58:19;4.77;;;3.40;;
20458;SDS011;10388;52.314;7.938;2023-07-22T13:00:50;3.33;;;3.03;;
20458;SDS011;10388;52.314;7.938;2023-07-22T13:03:21;4.80;;;2.87;;
20458;SDS011;10388;52.314;7.938;2023-07-22T13:05:51;3.57;;;3.27;;
20458;SDS011;10388;52.314;7.938;2023-07-22T13:08:22;3.30;;;3.00;;
20458;SDS011;10388;52.314;7.938;2023-07-22T13:10:52;4.37;;;2.90;;
20458;SDS011;10388;52.314;7.938;2023-07-22T13:13:23;5.50;;;3.13;;
20458;SDS011;10388;52.314;7.938;2023-07-22T13:15:53;4.80;;;3.20;;
20458;SDS011;10388;52.314;7.938;2023-07-22T13:18:24;3.57;;;2.60;;
20458;SDS011;10388;52.314;7.938;2023-07-22T13:20:54;4.40;;;3.00;;
20458;SDS011;10388;52.314;7.938;2023-07-22T13:23:25;3.90;;;2.80;;
20458;SDS011;10388;52.314;7.938;2023-07-22T13:25:56;3.00;;;2.40;;
20458;SDS011;10388;52.314;7.938;2023-07-22T13:28:26;3.07;;;2.40;;
20458;SDS011;10388;52.314;7.938;2023-07-22T13:30:57;2.57;;;2.30;;
20458;SDS011;10388;52.314;7.938;2023-07-22T13:33:27;3.37;;;2.60;;
20458;SDS011;10388;52.314;7.938;2023-07-22T13:35:58;2.77;;;2.47;;
20458;SDS011;10388;52.314;7.938;2023-07-22T13:38:28;7.07;;;2.33;;
20458;SDS011;10388;52.314;7.938;2023-07-22T13:40:59;4.20;;;2.57;;
20458;SDS011;10388;52.314;7.938;2023-07-22T13:43:29;4.13;;;2.70;;
20458;SDS011;10388;52.314;7.938;2023-07-22T13:46:00;2.80;;;2.60;;
20458;SDS011;10388;52.314;7.938;2023-07-22T13:48:30;3.70;;;2.77;;
20458;SDS011;10388;52.314;7.938;2023-07-22T13:51:01;3.27;;;2.43;;
20458;SDS011;10388;52.314;7.938;2023-07-22T13:53:31;3.40;;;2.80;;
20458;SDS011;10388;52.314;7.938;2023-07-22T13:56:02;3.93;;;2.87;;
20458;SDS011;10388;52.314;7.938;2023-07-22T13:58:33;2.97;;;2.67;;
20458;SDS011;10388;52.314;7.938;2023-07-22T14:01:03;3.70;;;3.07;;
20458;SDS011;10388;52.314;7.938;2023-07-22T14:03:34;3.47;;;2.73;;
20458;SDS011;10388;52.314;7.938;2023-07-22T14:06:04;3.57;;;2.70;;
20458;SDS011;10388;52.314;7.938;2023-07-22T14:08:35;4.83;;;2.80;;
20458;SDS011;10388;52.314;7.938;2023-07-22T14:11:05;3.50;;;3.00;;
20458;SDS011;10388;52.314;7.938;2023-07-22T14:13:36;3.20;;;2.90;;
20458;SDS011;10388;52.314;7.938;2023-07-22T14:16:06;2.73;;;2.50;;
20458;SDS011;10388;52.314;7.938;2023-07-22T14:18:37;4.03;;;3.23;;
20458;SDS011;10388;52.314;7.938;2023-07-22T14:21:07;5.47;;;2.80;;
20458;SDS011;10388;52.314;7.938;2023-07-22T14:23:40;4.23;;;2.97;;
20458;SDS011;10388;52.314;7.938;2023-07-22T14:26:11;3.80;;;2.93;;
20458;SDS011;10388;52.314;7.938;2023-07-22T14:28:42;3.37;;;3.07;;
20458;SDS011;10388;52.314;7.938;2023-07-22T14:31:13;3.27;;;2.97;;
20458;SDS011;10388;52.314;7.938;2023-07-22T14:33:43;3.43;;;2.90;;
20458;SDS011;10388;52.314;7.938;2023-07-22T14:36:14;4.37;;;3.33;;
20458;SDS011;10388;52.314;7.938;2023-07-22T14:38:44;3.20;;;2.90;;
20458;SDS011;10388;52.314;7.938;2023-07-22T14:41:16;4.00;;;3.30;;
20458;SDS011;10388;52.314;7.938;2023-07-22T14:43:47;4.07;;;3.40;;
20458;SDS011;10388;52.314;7.938;2023-07-22T14:46:17;4.67;;;3.43;;
20458;SDS011;10388;52.314;7.938;2023-07-22T14:48:48;3.50;;;3.10;;
20458;SDS011;10388;52.314;7.938;2023-07-22T14:51:18;3.83;;;3.30;;
20458;SDS011;10388;52.314;7.938;2023-07-22T14:53:49;4.43;;;3.33;;
20458;SDS011;10388;52.314;7.938;2023-07-22T14:56:19;5.20;;;3.30;;
20458;SDS011;10388;52.314;7.938;2023-07-22T14:58:50;5.40;;;3.60;;
20458;SDS011;10388;52.314;7.938;2023-07-22T15:01:21;4.77;;;3.60;;
20458;SDS011;10388;52.314;7.938;2023-07-22T15:03:52;3.27;;;2.93;;
20458;SDS011;10388;52.314;7.938;2023-07-22T15:06:22;4.90;;;3.97;;
20458;SDS011;10388;52.314;7.938;2023-07-22T15:08:53;4.97;;;3.93;;
20458;SDS011;10388;52.314;7.938;2023-07-22T15:11:24;4.43;;;3.63;;
20458;SDS011;10388;52.314;7.938;2023-07-22T15:13:54;6.43;;;3.80;;
20458;SDS011;10388;52.314;7.938;2023-07-22T15:16:25;3.63;;;3.13;;
20458;SDS011;10388;52.314;7.938;2023-07-22T15:18:55;4.67;;;3.33;;
20458;SDS011;10388;52.314;7.938;2023-07-22T15:21:26;4.70;;;3.47;;
20458;SDS011;10388;52.314;7.938;2023-07-22T15:23:56;5.03;;;3.70;;
20458;SDS011;10388;52.314;7.938;2023-07-22T15:26:27;4.63;;;3.50;;
20458;SDS011;10388;52.314;7.938;2023-07-22T15:28:57;5.37;;;3.60;;
20458;SDS011;10388;52.314;7.938;2023-07-22T15:31:28;5.60;;;3.50;;
20458;SDS011;10388;52.314;7.938;2023-07-22T15:33:58;5.17;;;3.70;;
20458;SDS011;10388;52.314;7.938;2023-07-22T15:36:29;4.37;;;3.97;;
20458;SDS011;10388;52.314;7.938;2023-07-22T15:38:59;6.20;;;4.17;;
20458;SDS011;10388;52.314;7.938;2023-07-22T15:41:30;4.13;;;3.73;;
20458;SDS011;10388;52.314;7.938;2023-07-22T15:44:00;3.97;;;3.23;;
20458;SDS011;10388;52.314;7.938;2023-07-22T15:46:31;3.67;;;3.23;;
20458;SDS011;10388;52.314;7.938;2023-07-22T15:49:02;3.83;;;3.43;;
20458;SDS011;10388;52.314;7.938;2023-07-22T15:51:32;4.50;;;3.93;;
20458;SDS011;10388;52.314;7.938;2023-07-22T15:54:03;5.83;;;4.00;;
20458;SDS011;10388;52.314;7.938;2023-07-22T15:56:34;5.37;;;4.50;;
20458;SDS011;10388;52.314;7.938;2023-07-22T15:59:05;5.27;;;4.77;;
20458;SDS011;10388;52.314;7.938;2023-07-22T16:01:35;7.03;;;5.40;;
20458;SDS011;10388;52.314;7.938;2023-07-22T16:04:06;5.97;;;4.73;;
20458;SDS011;10388;52.314;7.938;2023-07-22T16:06:37;5.23;;;4.43;;
20458;SDS011;10388;52.314;7.938;2023-07-22T16:09:07;6.73;;;4.33;;
20458;SDS011;10388;52.314;7.938;2023-07-22T16:11:38;4.33;;;3.93;;
20458;SDS011;10388;52.314;7.938;2023-07-22T16:14:08;6.17;;;4.53;;
20458;SDS011;10388;52.314;7.938;2023-07-22T16:16:39;8.93;;;4.30;;
20458;SDS011;10388;52.314;7.938;2023-07-22T16:19:10;7.07;;;5.10;;
20458;SDS011;10388;52.314;7.938;2023-07-22T16:21:41;5.97;;;4.43;;
20458;SDS011;10388;52.314;7.938;2023-07-22T16:24:11;4.90;;;4.23;;
20458;SDS011;10388;52.314;7.938;2023-07-22T16:26:42;6.33;;;5.03;;
20458;SDS011;10388;52.314;7.938;2023-07-22T16:29:12;5.70;;;4.80;;
20458;SDS011;10388;52.314;7.938;2023-07-22T16:31:43;6.20;;;4.80;;
20458;SDS011;10388;52.314;7.938;2023-07-22T16:34:13;6.07;;;4.50;;
20458;SDS011;10388;52.314;7.938;2023-07-22T16:36:44;5.13;;;4.57;;
20458;SDS011;10388;52.314;7.938;2023-07-22T16:39:14;6.10;;;4.70;;
20458;SDS011;10388;52.314;7.938;2023-07-22T16:41:45;5.47;;;4.77;;
20458;SDS011;10388;52.314;7.938;2023-07-22T16:44:15;5.53;;;4.10;;
20458;SDS011;10388;52.314;7.938;2023-07-22T16:46:47;4.90;;;4.33;;
20458;SDS011;10388;52.314;7.938;2023-07-22T16:49:17;5.73;;;4.67;;
20458;SDS011;10388;52.314;7.938;2023-07-22T16:51:48;5.50;;;4.33;;
20458;SDS011;10388;52.314;7.938;2023-07-22T16:54:18;5.30;;;4.37;;
20458;SDS011;10388;52.314;7.938;2023-07-22T16:56:49;5.80;;;5.00;;
20458;SDS011;10388;52.314;7.938;2023-07-22T16:59:19;9.40;;;4.93;;
20458;SDS011;10388;52.314;7.938;2023-07-22T17:01:50;5.23;;;4.43;;
20458;SDS011;10388;52.314;7.938;2023-07-22T17:04:20;5.97;;;4.93;;
20458;SDS011;10388;52.314;7.938;2023-07-22T17:06:51;5.87;;;4.70;;
20458;SDS011;10388;52.314;7.938;2023-07-22T17:09:21;5.37;;;4.50;;
20458;SDS011;10388;52.314;7.938;2023-07-22T17:11:52;5.50;;;4.63;;
20458;SDS011;10388;52.314;7.938;2023-07-22T17:14:22;4.63;;;4.20;;
20458;SDS011;10388;52.314;7.938;2023-07-22T17:16:53;6.17;;;4.93;;
20458;SDS011;10388;52.314;7.938;2023-07-22T17:19:23;7.33;;;4.70;;
20458;SDS011;10388;52.314;7.938;2023-07-22T17:21:54;6.40;;;4.97;;
20458;SDS011;10388;52.314;7.938;2023-07-22T17:24:25;5.47;;;4.77;;
20458;SDS011;10388;52.314;7.938;2023-07-22T17:26:55;7.10;;;5.23;;
20458;SDS011;10388;52.314;7.938;2023-07-22T17:29:26;5.43;;;4.90;;
20458;SDS011;10388;52.314;7.938;2023-07-22T17:31:57;6.70;;;5.07;;
20458;SDS011;10388;52.314;7.938;2023-07-22T17:34:27;5.67;;;4.60;;
20458;SDS011;10388;52.314;7.938;2023-07-22T17:36:58;5.20;;;4.37;;
20458;SDS011;10388;52.314;7.938;2023-07-22T17:39:29;5.60;;;4.77;;
20458;SDS011;10388;52.314;7.938;2023-07-22T17:42:00;7.30;;;5.10;;
20458;SDS011;10388;52.314;7.938;2023-07-22T17:44:30;6.73;;;5.07;;
20458;SDS011;10388;52.314;7.938;2023-07-22T17:47:01;7.50;;;4.90;;
20458;SDS011;10388;52.314;7.938;2023-07-22T17:49:31;5.73;;;4.73;;
20458;SDS011;10388;52.314;7.938;2023-07-22T17:52:02;8.27;;;4.77;;
20458;SDS011;10388;52.314;7.938;2023-07-22T17:54:33;6.57;;;5.20;;
20458;SDS011;10388;52.314;7.938;2023-07-22T17:57:03;7.23;;;6.53;;
20458;SDS011;10388;52.314;7.938;2023-07-22T17:59:34;8.30;;;5.40;;
20458;SDS011;10388;52.314;7.938;2023-07-22T18:02:05;7.30;;;5.57;;
20458;SDS011;10388;52.314;7.938;2023-07-22T18:04:36;5.93;;;5.33;;
20458;SDS011;10388;52.314;7.938;2023-07-22T18:07:06;5.90;;;4.80;;
20458;SDS011;10388;52.314;7.938;2023-07-22T18:09:37;6.80;;;5.37;;
20458;SDS011;10388;52.314;7.938;2023-07-22T18:12:07;7.37;;;5.17;;
20458;SDS011;10388;52.314;7.938;2023-07-22T18:14:42;5.33;;;4.83;;
20458;SDS011;10388;52.314;7.938;2023-07-22T18:17:12;6.73;;;5.60;;
20458;SDS011;10388;52.314;7.938;2023-07-22T18:19:43;6.10;;;5.10;;
20458;SDS011;10388;52.314;7.938;2023-07-22T18:22:13;6.03;;;4.70;;
20458;SDS011;10388;52.314;7.938;2023-07-22T18:24:45;5.23;;;4.73;;
20458;SDS011;10388;52.314;7.938;2023-07-22T18:27:15;5.67;;;4.90;;
20458;SDS011;10388;52.314;7.938;2023-07-22T18:29:46;6.43;;;5.40;;
20458;SDS011;10388;52.314;7.938;2023-07-22T18:32:16;6.93;;;5.50;;
20458;SDS011;10388;52.314;7.938;2023-07-22T18:34:47;7.07;;;5.47;;
20458;SDS011;10388;52.314;7.938;2023-07-22T18:37:18;8.60;;;5.40;;
20458;SDS011;10388;52.314;7.938;2023-07-22T18:39:49;7.70;;;5.07;;
20458;SDS011;10388;52.314;7.938;2023-07-22T18:42:20;5.93;;;4.47;;